Time;durP1;ratioP1;P1;durP2;ratioP2;P2;SDS_P1;SDS_P2;PMS_P1;PMS_P2;Temp;Humidity;BMP_temperature;BMP_pressure;BME280_temperature;BME280_humidity;BME280_pressure;Samples;Min_cycle;Max_cycle;Signal;HPM_P1;HPM_P2
2022/05/12 00:01:22;;;;;;;29.23;15.00;;;;;;;15.01;100.00;96110.31;5050228;28;20461;-76
2022/05/12 00:03:49;;;;;;;30.47;14.70;;;;;;;14.73;100.00;96094.72;5051589;28;20444;-76
2022/05/12 00:06:16;;;;;;;44.17;15.20;;;;;;;14.61;100.00;96063.00;5033717;28;20441;-76
2022/05/12 00:08:42;;;;;;;36.83;15.70;;;;;;;14.78;100.00;96112.28;5051458;28;20496;-76
2022/05/12 00:11:09;;;;;;;35.53;15.90;;;;;;;14.57;100.00;96075.47;5051544;28;20540;-76
2022/05/12 00:13:36;;;;;;;43.17;15.53;;;;;;;14.03;100.00;96043.84;5051180;28;20457;-76
2022/05/12 00:16:03;;;;;;;51.70;16.00;;;;;;;14.49;100.00;96060.53;5051116;28;20551;-76
2022/05/12 00:18:29;;;;;;;39.63;15.70;;;;;;;14.41;100.00;96064.94;5041630;28;20437;-76
2022/05/12 00:20:56;;;;;;;55.00;19.87;;;;;;;14.36;100.00;96094.50;5032470;28;20843;-76
2022/05/12 00:23:26;;;;;;;44.67;15.47;;;;;;;14.54;100.00;96097.47;5033492;28;20432;-76
2022/05/12 00:25:53;;;;;;;53.00;15.37;;;;;;;14.39;100.00;96053.13;5041506;28;20861;-76
2022/05/12 00:28:22;;;;;;;45.03;15.50;;;;;;;14.79;100.00;96097.84;5033309;28;21000;-76
2022/05/12 00:30:51;;;;;;;49.90;15.53;;;;;;;14.39;100.00;96037.94;5051137;28;20547;-76
2022/05/12 00:33:20;;;;;;;38.53;15.00;;;;;;;14.54;100.00;96092.13;5033021;28;20938;-76
2022/05/12 00:35:47;;;;;;;38.07;14.83;;;;;;;14.24;100.00;96078.72;5033123;28;20560;-76
2022/05/12 00:38:13;;;;;;;37.43;15.43;;;;;;;14.03;100.00;96033.97;5033453;28;20945;-76
2022/05/12 00:40:44;;;;;;;42.77;16.10;;;;;;;14.65;100.00;96082.44;5033277;28;20821;-76
2022/05/12 00:43:43;;;;;;;54.27;14.93;;;;;;;14.59;100.00;96083.09;5052371;28;20991;-75
2022/05/12 00:46:24;;;;;;;32.50;15.70;;;;;;;14.55;100.00;96063.63;5033724;28;20460;-76
2022/05/12 00:48:53;;;;;;;27.63;13.43;;;;;;;14.37;100.00;96074.00;5033216;28;20432;-76
2022/05/12 00:51:24;;;;;;;41.80;15.70;;;;;;;14.40;100.00;96076.69;5051266;28;20483;-76
2022/05/12 00:53:54;;;;;;;34.20;14.37;;;;;;;14.53;100.00;96079.97;5051202;28;20418;-76
2022/05/12 00:56:23;;;;;;;35.77;15.57;;;;;;;14.08;100.00;95996.44;5051361;28;20453;-76
2022/05/12 00:58:54;;;;;;;30.63;14.60;;;;;;;14.65;100.00;96081.66;5033057;28;20473;-76
2022/05/12 01:01:21;;;;;;;38.90;14.40;;;;;;;14.32;100.00;96037.84;5051640;28;20438;-76
2022/05/12 01:03:48;;;;;;;36.10;15.30;;;;;;;14.08;100.00;96041.63;5051186;28;20520;-76
2022/05/12 01:06:15;;;;;;;30.90;15.90;;;;;;;14.41;100.00;96066.81;5051929;28;20468;-76
2022/05/12 01:08:43;;;;;;;32.57;16.23;;;;;;;13.93;100.00;96063.03;5034051;28;20525;-76
2022/05/12 01:11:13;;;;;;;34.47;15.00;;;;;;;13.96;100.00;96100.28;5051701;28;20909;-76
2022/05/12 01:13:42;;;;;;;32.20;14.70;;;;;;;14.26;100.00;96094.31;5034028;28;20440;-76
2022/05/12 01:16:08;;;;;;;31.60;15.73;;;;;;;14.34;100.00;96103.97;5034012;28;20458;-76
2022/05/12 01:18:39;;;;;;;32.57;14.63;;;;;;;14.29;100.00;96067.00;5042217;28;20440;-76
2022/05/12 01:21:08;;;;;;;30.33;14.50;;;;;;;14.33;100.00;96129.81;5033808;28;20548;-76
2022/05/12 01:23:37;;;;;;;24.07;13.37;;;;;;;14.06;100.00;96130.84;5038109;28;20463;-76
2022/05/12 01:26:13;;;;;;;21.33;12.73;;;;;;;13.71;100.00;96142.34;5051654;28;20432;-76
2022/05/12 01:28:40;;;;;;;16.47;13.03;;;;;;;13.66;100.00;96104.69;5033642;28;20469;-76
2022/05/12 01:31:07;;;;;;;19.40;11.43;;;;;;;13.75;100.00;96142.41;5051893;28;20984;-76
2022/05/12 01:33:35;;;;;;;14.10;12.17;;;;;;;14.30;100.00;96138.50;5054918;28;20436;-76
2022/05/12 01:36:02;;;;;;;18.53;12.07;;;;;;;14.15;100.00;96097.56;5036973;28;20491;-76
2022/05/12 01:38:29;;;;;;;17.83;10.87;;;;;;;14.09;100.00;96063.66;5036950;28;20523;-76
2022/05/12 01:40:55;;;;;;;12.27;10.03;;;;;;;14.54;100.00;96129.38;5036127;28;20489;-76
2022/05/12 01:43:22;;;;;;;21.10;12.10;;;;;;;14.40;100.00;96113.16;5054076;28;20467;-76
2022/05/12 01:45:49;;;;;;;11.73;9.90;;;;;;;14.73;100.00;96136.53;5053768;28;20467;-76
2022/05/12 01:48:17;;;;;;;11.40;10.17;;;;;;;14.87;100.00;96136.75;5036399;28;20479;-75
2022/05/12 01:50:45;;;;;;;13.73;10.30;;;;;;;14.94;100.00;96138.72;5053829;28;20484;-76
2022/05/12 01:53:14;;;;;;;11.80;10.60;;;;;;;14.85;100.00;96107.06;5036247;28;20873;-76
2022/05/12 01:55:43;;;;;;;12.63;11.27;;;;;;;14.96;100.00;96105.31;5053750;28;20457;-75
2022/05/12 01:58:10;;;;;;;13.10;9.97;;;;;;;15.15;100.00;96159.59;5054102;28;20541;-76
2022/05/12 02:00:37;;;;;;;13.27;10.60;;;;;;;14.85;100.00;96090.31;5016191;28;20454;-76
2022/05/12 02:03:04;;;;;;;13.93;11.03;;;;;;;15.18;100.00;96146.31;5044804;28;20460;-76
2022/05/12 02:05:33;;;;;;;10.90;9.57;;;;;;;15.11;100.00;96156.88;5036268;28;20429;-76
2022/05/12 02:08:00;;;;;;;21.83;10.90;;;;;;;15.12;100.00;96150.44;5053811;28;20430;-76
2022/05/12 02:10:37;;;;;;;13.33;10.77;;;;;;;15.12;100.00;96154.97;5053775;28;20481;-76
2022/05/12 02:13:09;;;;;;;12.33;9.90;;;;;;;14.58;100.00;96077.00;5053710;28;20762;-76
2022/05/12 02:15:37;;;;;;;10.93;9.83;;;;;;;15.06;100.00;96162.50;5053997;28;20556;-76
2022/05/12 02:18:05;;;;;;;13.13;11.10;;;;;;;14.35;100.00;96116.91;5044175;28;20488;-76
2022/05/12 02:20:32;;;;;;;12.13;10.80;;;;;;;14.76;100.00;96165.09;5036215;28;20828;-76
2022/05/12 02:22:59;;;;;;;11.10;10.07;;;;;;;14.81;100.00;96162.13;5035989;28;20532;-76
2022/05/12 02:25:25;;;;;;;11.03;10.03;;;;;;;14.57;100.00;96120.72;5036072;28;21002;-76
2022/05/12 02:27:52;;;;;;;15.30;11.60;;;;;;;14.51;100.00;96159.38;5035734;28;20475;-76
2022/05/12 02:30:24;;;;;;;13.87;10.03;;;;;;;14.68;100.00;96171.41;5035837;28;21309;-76
2022/05/12 02:32:51;;;;;;;12.73;10.97;;;;;;;14.26;100.00;96150.16;5035143;28;20807;-76
2022/05/12 02:35:19;;;;;;;12.77;10.30;;;;;;;14.32;100.00;96154.09;5053577;28;20972;-76
2022/05/12 02:37:46;;;;;;;14.40;11.37;;;;;;;14.57;100.00;96170.50;5035460;28;20447;-76
2022/05/12 02:40:17;;;;;;;14.43;10.37;;;;;;;14.29;100.00;96182.16;5053213;28;20527;-76
2022/05/12 02:42:43;;;;;;;12.07;9.80;;;;;;;13.94;100.00;96161.00;5052604;28;20501;-76
2022/05/12 02:45:11;;;;;;;12.83;11.23;;;;;;;14.13;100.00;96182.25;5052152;28;20434;-76
2022/05/12 02:47:39;;;;;;;11.57;10.60;;;;;;;14.07;100.00;96143.00;5035729;28;20421;-76
2022/05/12 02:50:07;;;;;;;12.60;10.83;;;;;;;13.85;100.00;96101.97;5035422;28;20437;-76
2022/05/12 02:52:33;;;;;;;12.10;10.67;;;;;;;14.43;100.00;96173.66;5035416;28;20971;-76
2022/05/12 02:55:00;;;;;;;14.67;10.27;;;;;;;14.50;100.00;96189.75;5053150;28;20456;-76
2022/05/12 02:57:27;;;;;;;14.60;10.37;;;;;;;14.30;100.00;96156.34;5035484;28;20801;-76
2022/05/12 02:59:53;;;;;;;12.53;11.30;;;;;;;14.59;100.00;96200.19;5035231;28;20535;-76
2022/05/12 03:02:20;;;;;;;13.20;9.97;;;;;;;14.09;100.00;96138.13;5035184;28;20500;-76
2022/05/12 03:04:47;;;;;;;19.70;11.17;;;;;;;14.19;100.00;96162.25;5035512;28;20425;-76
2022/05/12 03:07:14;;;;;;;11.67;9.47;;;;;;;13.80;100.00;96121.66;5034948;28;20436;-76
2022/05/12 03:09:41;;;;;;;10.40;9.50;;;;;;;13.50;100.00;96100.22;5052876;28;20468;-76
2022/05/12 03:12:08;;;;;;;10.37;9.37;;;;;;;13.82;100.00;96177.88;5035346;28;20848;-75
2022/05/12 03:14:34;;;;;;;10.70;8.87;;;;;;;13.59;100.00;96129.97;5053157;28;20491;-76
2022/05/12 03:17:02;;;;;;;9.77;8.70;;;;;;;13.82;100.00;96174.44;5050081;28;20544;-76
2022/05/12 03:19:31;;;;;;;15.03;9.90;;;;;;;13.71;100.00;96213.31;5044250;28;20826;-76
2022/05/12 03:21:58;;;;;;;13.60;9.70;;;;;;;13.87;100.00;96206.03;5052880;28;20853;-76
2022/05/12 03:24:25;;;;;;;9.63;8.73;;;;;;;13.67;100.00;96156.69;5035244;28;20524;-76
2022/05/12 03:26:52;;;;;;;10.10;9.13;;;;;;;13.92;100.00;96218.31;5035075;28;20441;-76
2022/05/12 03:29:19;;;;;;;12.83;9.37;;;;;;;13.84;100.00;96198.78;5034928;28;20495;-76
2022/05/12 03:31:45;;;;;;;10.70;9.60;;;;;;;13.24;100.00;96145.19;5034447;28;20453;-76
2022/05/12 03:34:12;;;;;;;12.83;10.70;;;;;;;13.78;100.00;96216.13;5034430;28;20444;-76
2022/05/12 03:36:39;;;;;;;14.30;9.67;;;;;;;13.30;100.00;96133.19;5052223;28;20961;-76
2022/05/12 03:39:09;;;;;;;12.87;11.63;;;;;;;13.56;100.00;96212.25;5034503;28;20516;-76
2022/05/12 03:41:36;;;;;;;11.37;10.37;;;;;;;13.23;100.00;96168.31;5034565;28;20560;-76
2022/05/12 03:46:48;;;;;;;10.70;9.67;;;;;;;13.47;100.00;96216.97;5052168;28;20449;-76
2022/05/12 03:49:14;;;;;;;12.20;10.20;;;;;;;13.19;100.00;96164.03;5051951;28;20942;-76
2022/05/12 03:51:41;;;;;;;12.37;10.83;;;;;;;13.38;100.00;96184.56;5034255;28;20453;-76
2022/05/12 03:54:08;;;;;;;12.13;9.67;;;;;;;13.21;100.00;96151.94;5033611;28;20795;-76
2022/05/12 03:56:35;;;;;;;13.20;11.00;;;;;;;13.91;100.00;96246.78;5033591;28;20914;-75
2022/05/12 03:59:03;;;;;;;10.60;9.60;;;;;;;13.98;100.00;96259.44;5033731;28;20449;-75
2022/05/12 04:01:31;;;;;;;10.90;9.90;;;;;;;13.83;100.00;96242.41;5033942;28;20544;-75
2022/05/12 04:03:58;;;;;;;9.87;8.87;;;;;;;13.90;100.00;96266.50;5033781;28;20526;-75
2022/05/12 04:06:25;;;;;;;10.27;9.10;;;;;;;13.43;100.00;96198.31;5033628;28;20436;-75
2022/05/12 04:08:52;;;;;;;10.43;9.50;;;;;;;13.41;100.00;96229.78;5033511;28;20535;-75
2022/05/12 04:11:19;;;;;;;11.40;10.30;;;;;;;13.31;100.00;96268.25;5033574;28;20500;-75
2022/05/12 04:13:46;;;;;;;10.20;9.10;;;;;;;13.27;100.00;96270.06;5033848;28;20839;-75
2022/05/12 04:16:15;;;;;;;8.90;8.10;;;;;;;13.25;100.00;96276.84;5033812;28;20884;-75
2022/05/12 04:18:42;;;;;;;8.57;7.77;;;;;;;13.15;100.00;96274.66;5041940;28;20429;-75
2022/05/12 04:21:08;;;;;;;10.07;9.20;;;;;;;13.30;100.00;96265.94;5051891;28;20927;-74
2022/05/12 04:23:35;;;;;;;13.17;9.80;;;;;;;13.39;100.00;96279.81;5033632;28;20525;-74
2022/05/12 04:26:02;;;;;;;9.80;8.63;;;;;;;13.30;100.00;96268.59;5034255;28;20422;-74
2022/05/12 04:28:30;;;;;;;9.73;8.93;;;;;;;13.72;100.00;96291.91;5051537;28;20519;-74
2022/05/12 04:30:58;;;;;;;11.23;8.63;;;;;;;13.76;100.00;96282.91;5051256;28;20454;-75
2022/05/12 04:36:10;;;;;;;17.60;8.80;;;;;;;13.96;100.00;96302.31;5036947;28;20504;-74
2022/05/12 04:38:36;;;;;;;12.63;9.37;;;;;;;13.77;100.00;96283.69;5051511;28;20517;-75
2022/05/12 04:41:03;;;;;;;17.63;9.40;;;;;;;13.87;100.00;96310.47;5051253;28;20468;-75
2022/05/12 04:43:30;;;;;;;17.10;9.17;;;;;;;14.18;100.00;96330.88;5033926;28;20433;-75
2022/05/12 04:45:57;;;;;;;12.70;9.17;;;;;;;14.36;100.00;96322.47;5033372;28;20505;-75
2022/05/12 04:48:25;;;;;;;15.33;8.57;;;;;;;14.64;100.00;96316.97;5033967;28;20417;-75
2022/05/12 04:50:52;;;;;;;16.73;7.77;;;;;;;14.84;100.00;96289.19;5051406;28;20463;-75
2022/05/12 04:53:19;;;;;;;14.53;7.87;;;;;;;14.92;100.00;96290.06;5033746;28;20500;-75
2022/05/12 04:55:47;;;;;;;16.13;7.53;;;;;;;15.20;100.00;96319.06;5051349;28;20467;-75
2022/05/12 04:58:14;;;;;;;17.00;8.00;;;;;;;14.93;100.00;96297.72;5033657;28;20432;-75
2022/05/12 05:00:41;;;;;;;14.57;9.87;;;;;;;14.87;100.00;96338.31;5051207;28;20515;-75
2022/05/12 05:03:09;;;;;;;16.33;9.80;;;;;;;14.61;100.00;96326.44;5051203;28;20429;-75
2022/05/12 05:05:44;;;;;;;16.00;8.47;;;;;;;14.91;100.00;96333.81;5033638;28;20421;-75
2022/05/12 05:08:16;;;;;;;17.40;8.40;;;;;;;15.38;100.00;96352.13;5036893;28;20441;-74
2022/05/12 05:10:44;;;;;;;13.30;8.07;;;;;;;15.71;100.00;96353.41;5036849;28;21068;-74
2022/05/12 05:13:10;;;;;;;8.60;7.00;;;;;;;15.98;100.00;96359.50;5036680;28;20495;-74
2022/05/12 05:15:37;;;;;;;14.70;6.60;;;;;;;16.13;100.00;96362.00;5036385;28;20905;-74
2022/05/12 05:18:10;;;;;;;6.20;5.60;;;;;;;16.08;100.00;96329.53;5040891;28;20434;-74
2022/05/12 05:20:37;;;;;;;5.67;5.17;;;;;;;16.37;100.00;96354.69;5036616;28;20471;-74
2022/05/12 05:23:05;;;;;;;5.83;5.33;;;;;;;16.60;100.00;96391.97;5036298;28;20437;-74
2022/05/12 05:25:31;;;;;;;6.00;5.40;;;;;;;16.66;100.00;96385.91;5036280;28;20532;-74
2022/05/12 05:27:58;;;;;;;5.03;4.60;;;;;;;16.85;100.00;96401.06;5036344;28;20540;-76
2022/05/12 05:30:26;;;;;;;8.37;5.90;;;;;;;16.91;100.00;96404.94;5036285;28;20461;-76
2022/05/12 05:32:54;;;;;;;7.93;4.77;;;;;;;17.06;100.00;96406.63;5040677;28;20498;-76
2022/05/12 05:35:22;;;;;;;5.17;4.77;;;;;;;17.17;100.00;96405.97;5036205;28;20430;-76
2022/05/12 05:37:50;;;;;;;6.97;4.97;;;;;;;17.13;100.00;96393.34;5036083;28;20437;-76
2022/05/12 05:40:19;;;;;;;7.40;5.90;;;;;;;17.45;100.00;96422.28;5036085;28;21062;-76
2022/05/12 05:42:46;;;;;;;7.67;5.60;;;;;;;17.42;100.00;96399.72;5053968;28;20539;-76
2022/05/12 05:45:17;;;;;;;9.70;4.33;;;;;;;17.67;100.00;96429.34;5036040;28;20444;-75
2022/05/12 05:47:51;;;;;;;7.67;5.17;;;;;;;17.78;100.00;96420.69;5036322;28;20467;-75
2022/05/12 05:50:22;;;;;;;6.97;4.30;;;;;;;17.95;100.00;96425.41;5053842;28;20452;-75
2022/05/12 05:55:34;;;;;;;5.03;4.60;;;;;;;18.00;100.00;96409.75;5053794;28;21133;-74
2022/05/12 05:58:04;;;;;;;8.27;4.30;;;;;;;18.22;100.00;96434.00;5035767;28;20433;-75
2022/05/12 06:00:31;;;;;;;7.90;4.57;;;;;;;18.34;100.00;96447.06;5035686;28;20833;-75
2022/05/12 06:02:59;;;;;;;9.93;4.30;;;;;;;18.46;100.00;96443.31;5035653;28;20476;-75
2022/05/12 06:05:27;;;;;;;9.80;4.37;;;;;;;18.53;100.00;96444.09;5039486;28;20975;-75
2022/05/12 06:07:54;;;;;;;9.73;4.83;;;;;;;18.21;100.00;96374.34;5053618;28;20464;-74
2022/05/12 06:10:22;;;;;;;5.47;4.40;;;;;;;18.65;100.00;96426.97;5035464;28;20460;-75
2022/05/12 06:12:49;;;;;;;5.60;3.87;;;;;;;18.97;100.00;96447.78;5053438;28;20487;-75
2022/05/12 06:15:16;;;;;;;7.37;3.30;;;;;;;18.70;100.00;96464.16;5035531;28;20495;-74
2022/05/12 06:17:43;;;;;;;6.00;3.47;;;;;;;18.73;100.00;96455.34;5017826;28;20901;-74
2022/05/12 06:20:10;;;;;;;3.53;3.23;;;;;;;18.84;99.70;96472.25;5052032;28;20464;-74
2022/05/12 06:22:38;;;;;;;3.73;3.43;;;;;;;18.76;99.35;96478.69;5036051;28;20915;-74
2022/05/12 06:25:07;;;;;;;4.53;3.23;;;;;;;18.80;98.82;96454.59;5053438;28;20877;-74
2022/05/12 06:27:35;;;;;;;6.90;3.30;;;;;;;18.58;98.27;96440.31;5035322;28;20944;-74
2022/05/12 06:30:04;;;;;;;11.83;4.23;;;;;;;19.18;99.49;96485.38;5021750;28;20532;-74
2022/05/12 06:32:32;;;;;;;12.57;4.13;;;;;;;19.39;96.51;96469.38;5035162;28;20479;-74
2022/05/12 06:34:58;;;;;;;30.30;6.17;;;;;;;19.36;96.38;96494.25;5053055;28;20533;-74
2022/05/12 06:37:25;;;;;;;18.00;4.90;;;;;;;19.33;96.80;96475.47;5035057;28;20461;-74
2022/05/12 06:39:52;;;;;;;8.33;5.60;;;;;;;19.20;95.62;96477.72;5034959;28;20580;-74
2022/05/12 06:42:19;;;;;;;8.70;3.57;;;;;;;19.32;94.55;96506.09;5051330;28;20833;-75
2022/05/12 06:44:45;;;;;;;6.20;3.30;;;;;;;19.32;93.00;96452.47;5021865;28;20972;-75
2022/05/12 06:47:14;;;;;;;10.10;3.63;;;;;;;19.75;92.06;96505.09;5041754;28;20917;-74
2022/05/12 06:49:42;;;;;;;5.87;2.90;;;;;;;19.41;95.23;96507.28;5052928;28;20786;-75
2022/05/12 06:52:10;;;;;;;10.37;3.80;;;;;;;19.42;94.40;96513.44;5034744;28;20466;-75
2022/05/12 06:54:38;;;;;;;11.77;4.50;;;;;;;19.52;93.84;96518.06;5034930;28;20437;-75
2022/05/12 06:57:05;;;;;;;22.33;3.87;;;;;;;19.93;91.84;96521.22;5040512;28;20457;-74
2022/05/12 06:59:37;;;;;;;5.87;3.10;;;;;;;20.04;88.58;96531.97;5034879;28;20512;-75
2022/05/12 07:02:04;;;;;;;5.70;3.13;;;;;;;19.84;89.40;96533.47;5052884;28;20441;-74
2022/05/12 07:04:31;;;;;;;4.93;3.20;;;;;;;19.67;89.42;96532.31;5031399;28;20445;-74
2022/05/12 07:06:58;;;;;;;4.30;2.80;;;;;;;19.52;88.60;96511.94;5047971;28;20508;-74
2022/05/12 07:09:25;;;;;;;4.67;3.30;;;;;;;19.92;87.01;96541.16;5034656;28;20441;-75
2022/05/12 07:11:53;;;;;;;2.60;2.40;;;;;;;19.53;86.70;96508.88;5039277;28;20456;-75
2022/05/12 07:14:21;;;;;;;8.37;2.80;;;;;;;19.34;87.95;96514.53;5018200;28;20448;-76
2022/05/12 07:16:48;;;;;;;3.80;2.80;;;;;;;19.37;89.00;96527.97;5052574;28;20453;-76
2022/05/12 07:19:15;;;;;;;5.63;3.53;;;;;;;19.52;90.48;96523.41;5034743;28;20444;-76
2022/05/12 07:27:14;;;;;;;3.20;2.43;;;;;;;19.49;86.08;96508.84;5034311;28;20520;-76
2022/05/12 07:29:40;;;;;;;2.53;2.33;;;;;;;19.32;88.12;96511.47;5051995;28;21053;-76
2022/05/12 07:32:08;;;;;;;8.37;3.40;;;;;;;19.32;88.43;96531.00;5029933;28;20492;-76
2022/05/12 07:34:35;;;;;;;3.17;2.87;;;;;;;20.13;86.03;96569.16;5048970;28;20445;-76
2022/05/12 07:37:03;;;;;;;6.10;3.70;;;;;;;19.83;85.40;96564.91;5051324;28;20514;-76
2022/05/12 07:39:30;;;;;;;6.50;2.60;;;;;;;20.08;86.12;96571.09;5016847;28;20438;-76
2022/05/12 07:41:59;;;;;;;10.17;3.93;;;;;;;19.81;84.29;96553.78;5045475;28;20464;-76
2022/05/12 07:44:32;;;;;;;6.90;3.30;;;;;;;20.53;84.32;96551.94;5024011;28;20859;-76
2022/05/12 07:47:09;;;;;;;5.33;3.40;;;;;;;20.38;84.89;96543.88;5047606;28;20438;-76
2022/05/12 07:49:36;;;;;;;12.17;3.63;;;;;;;19.76;82.55;96544.22;5020491;28;20456;-76
2022/05/12 07:52:05;;;;;;;14.57;3.00;;;;;;;19.90;83.48;96570.31;5043949;28;20800;-76
2022/05/12 07:54:32;;;;;;;15.10;4.57;;;;;;;20.11;84.08;96582.22;5025982;28;20476;-76
2022/05/12 07:57:00;;;;;;;24.67;5.07;;;;;;;20.29;84.64;96581.06;5031212;28;20584;-76
2022/05/12 07:59:31;;;;;;;13.23;3.53;;;;;;;20.73;81.93;96576.50;5030840;28;20536;-76
2022/05/12 08:01:58;;;;;;;10.30;3.50;;;;;;;20.55;82.21;96569.22;5022547;28;20609;-76
2022/05/12 08:04:25;;;;;;;9.80;2.77;;;;;;;20.55;82.59;96577.25;5024668;28;20460;-76
2022/05/12 08:06:52;;;;;;;3.00;2.80;;;;;;;20.08;77.92;96548.84;5051381;28;20484;-76
2022/05/12 08:09:19;;;;;;;7.43;3.43;;;;;;;20.04;80.03;96596.41;5033528;28;20445;-76
2022/05/12 08:11:46;;;;;;;4.13;3.73;;;;;;;20.48;79.28;96595.31;5036566;28;20469;-76
2022/05/12 08:14:13;;;;;;;3.83;2.67;;;;;;;20.27;79.44;96574.56;5042026;28;20524;-76
2022/05/12 08:16:40;;;;;;;3.03;2.03;;;;;;;20.00;79.14;96572.22;5043701;28;20486;-77
2022/05/12 08:19:07;;;;;;;4.67;2.50;;;;;;;20.19;77.94;96578.41;5009472;28;20844;-75
2022/05/12 08:21:34;;;;;;;2.33;2.10;;;;;;;20.33;79.82;96606.03;5051295;28;20899;-75
2022/05/12 08:24:01;;;;;;;8.77;2.77;;;;;;;20.32;77.96;96574.19;5050014;28;20843;-75
2022/05/12 08:26:27;;;;;;;11.60;2.70;;;;;;;20.01;80.01;96608.66;5033215;28;20476;-75
2022/05/12 08:28:54;;;;;;;3.47;2.97;;;;;;;20.26;79.33;96589.91;5049912;28;20999;-75
2022/05/12 08:31:24;;;;;;;4.67;2.53;;;;;;;19.91;80.38;96590.63;5049452;28;20544;-76
2022/05/12 08:33:52;;;;;;;11.53;5.03;;;;;;;20.64;80.54;96620.66;5039760;28;20414;-75
2022/05/12 08:36:19;;;;;;;3.10;2.90;;;;;;;20.35;78.80;96592.97;5032967;28;20555;-75
2022/05/12 08:38:45;;;;;;;3.67;3.00;;;;;;;20.26;79.87;96614.06;5032947;28;20537;-75
2022/05/12 08:41:27;;;;;;;4.70;3.50;;;;;;;20.34;80.62;96612.16;5035836;28;20506;-75
2022/05/12 08:44:01;;;;;;;2.83;2.53;;;;;;;20.80;78.09;96622.94;5039724;28;20433;-75
2022/05/12 08:46:53;;;;;;;5.90;2.57;;;;;;;20.35;77.73;96613.72;5039610;28;20506;-75
2022/05/12 08:49:29;;;;;;;3.20;2.60;;;;;;;20.48;78.97;96627.56;5052101;28;20532;-75
2022/05/12 08:52:27;;;;;;;7.70;2.93;;;;;;;20.50;77.87;96622.56;5039410;28;20468;-75
2022/05/12 08:55:15;;;;;;;3.90;2.67;;;;;;;19.81;76.26;96535.00;5023437;28;20437;-75
2022/05/12 08:58:08;;;;;;;1.80;1.70;;;;;;;20.64;76.38;96626.03;5012985;28;20553;-75
2022/05/12 09:00:52;;;;;;;2.77;2.50;;;;;;;20.95;76.12;96637.91;5029468;28;20458;-75
2022/05/12 09:03:39;;;;;;;6.07;2.57;;;;;;;20.56;77.02;96632.53;5057593;28;20487;-75
2022/05/12 09:06:15;;;;;;;9.80;2.77;;;;;;;20.33;76.27;96640.94;5044003;28;20494;-76
2022/05/12 09:09:10;;;;;;;4.90;2.60;;;;;;;20.47;76.47;96621.41;5041033;28;20467;-75
2022/05/12 09:12:04;;;;;;;2.77;2.17;;;;;;;20.68;75.64;96642.13;5039336;28;20472;-75
2022/05/12 09:14:55;;;;;;;3.10;2.80;;;;;;;20.97;75.95;96642.91;5049176;28;20440;-75
2022/05/12 09:17:28;;;;;;;5.27;2.43;;;;;;;21.26;74.57;96651.72;5044249;28;20492;-75
2022/05/12 09:19:55;;;;;;;3.20;2.90;;;;;;;20.79;75.33;96634.06;5039257;28;20480;-75
2022/05/12 09:22:28;;;;;;;3.80;2.30;;;;;;;20.65;75.68;96618.72;5039278;28;20453;-76
2022/05/12 09:24:55;;;;;;;5.87;2.73;;;;;;;20.73;76.74;96620.28;5057340;28;20464;-76
2022/05/12 09:27:32;;;;;;;3.07;2.87;;;;;;;20.72;76.13;96605.31;5039636;28;20464;-75
2022/05/12 09:29:59;;;;;;;5.80;2.43;;;;;;;20.79;75.74;96663.66;5039171;28;20540;-76
2022/05/12 09:32:31;;;;;;;3.20;2.30;;;;;;;20.06;75.60;96655.84;5039279;28;20441;-75
2022/05/12 09:35:21;;;;;;;6.73;2.90;;;;;;;20.92;75.05;96648.66;5039476;28;20818;-76
2022/05/12 09:37:49;;;;;;;2.90;2.27;;;;;;;20.69;74.74;96653.66;5044525;28;20897;-75
2022/05/12 09:40:34;;;;;;;3.80;2.17;;;;;;;20.46;75.31;96652.13;5039393;28;20433;-75
2022/05/12 09:43:19;;;;;;;3.80;2.50;;;;;;;20.53;74.56;96662.88;5026183;28;20532;-75
2022/05/12 09:46:00;;;;;;;4.03;2.90;;;;;;;20.33;76.62;96658.97;5057255;28;20921;-75
2022/05/12 09:48:31;;;;;;;3.60;2.20;;;;;;;20.22;77.59;96660.88;5044719;28;20443;-76
2022/05/12 09:51:32;;;;;;;3.77;2.43;;;;;;;20.52;77.92;96657.88;5039146;28;20464;-75
2022/05/12 09:54:26;;;;;;;4.50;2.57;;;;;;;20.33;77.18;96659.75;5040395;28;20436;-75
2022/05/12 09:57:12;;;;;;;2.40;2.20;;;;;;;20.70;76.27;96663.25;5035712;28;20468;-76
2022/05/12 09:59:41;;;;;;;4.03;2.57;;;;;;;21.01;76.72;96654.41;5039775;28;20444;-75
2022/05/12 10:08:24;;;;;;;3.47;2.60;;;;;;;20.54;76.50;96653.66;5011401;28;20427;-75
2022/05/12 10:10:58;;;;;;;2.87;2.67;;;;;;;20.37;77.02;96660.50;5022131;28;20457;-75
2022/05/12 10:13:37;;;;;;;3.30;2.40;;;;;;;20.27;77.04;96652.44;5053663;28;21200;-75
2022/05/12 10:16:06;;;;;;;6.10;2.77;;;;;;;20.19;76.71;96630.19;5023527;28;21020;-75
2022/05/12 10:18:40;;;;;;;3.50;2.90;;;;;;;20.48;76.18;96655.19;5033559;28;20462;-75
2022/05/12 10:21:20;;;;;;;3.80;2.40;;;;;;;20.74;76.07;96653.28;5035369;28;20469;-75
2022/05/12 10:24:02;;;;;;;4.40;2.50;;;;;;;20.73;76.07;96649.84;5053303;28;20870;-75
2022/05/12 10:26:38;;;;;;;3.03;2.10;;;;;;;20.45;75.19;96580.75;5053203;28;20433;-76
2022/05/12 10:29:37;;;;;;;3.80;2.23;;;;;;;21.06;75.31;96650.56;5051936;28;20440;-75
2022/05/12 10:32:44;;;;;;;4.80;3.33;;;;;;;20.85;73.22;96637.94;5035393;28;20487;-75
2022/05/12 10:35:29;;;;;;;3.47;2.67;;;;;;;20.63;74.05;96632.56;5015448;28;20438;-75
2022/05/12 10:38:19;;;;;;;2.83;2.63;;;;;;;20.96;74.35;96611.78;5029308;28;20461;-75
2022/05/12 10:40:58;;;;;;;5.87;2.60;;;;;;;21.31;73.61;96600.22;5034934;28;21140;-75
2022/05/12 10:43:30;;;;;;;3.63;2.60;;;;;;;21.66;71.98;96647.75;5034896;28;20442;-75
2022/05/12 10:46:11;;;;;;;2.57;1.93;;;;;;;21.88;70.99;96645.72;5052896;28;20429;-75
2022/05/12 10:49:10;;;;;;;8.50;2.87;;;;;;;21.58;70.59;96634.72;5041660;28;20429;-75
2022/05/12 10:51:49;;;;;;;2.23;2.03;;;;;;;20.95;69.92;96640.59;5034724;28;20480;-75
2022/05/12 10:54:18;;;;;;;3.10;2.50;;;;;;;21.06;70.21;96643.25;5052791;28;20799;-75
2022/05/12 10:57:03;;;;;;;2.50;2.00;;;;;;;21.10;71.21;96652.13;5034664;28;20481;-76
2022/05/12 10:59:53;;;;;;;4.27;3.20;;;;;;;21.14;71.18;96639.41;5035052;28;20836;-75
2022/05/12 11:02:35;;;;;;;3.47;2.03;;;;;;;21.06;72.64;96640.56;5034466;28;20545;-76
2022/05/12 11:05:09;;;;;;;2.37;2.17;;;;;;;20.63;72.59;96648.66;5052196;28;20878;-75
2022/05/12 11:07:47;;;;;;;2.53;2.33;;;;;;;20.67;71.79;96640.59;5031126;28;20434;-75
2022/05/12 11:10:28;;;;;;;5.30;2.67;;;;;;;20.59;72.01;96633.72;5034339;28;20540;-75
2022/05/12 11:13:45;;;;;;;2.47;2.03;;;;;;;20.35;72.16;96644.00;5034533;28;20532;-75
2022/05/12 11:16:21;;;;;;;3.90;2.10;;;;;;;20.37;72.23;96620.22;4969960;28;20447;-75
2022/05/12 11:19:05;;;;;;;2.77;1.93;;;;;;;21.25;70.74;96612.53;4945596;28;20543;-75
2022/05/12 11:21:41;;;;;;;2.90;1.70;;;;;;;21.01;68.15;96581.81;5018939;28;20475;-75
2022/05/12 11:24:25;;;;;;;3.20;2.50;;;;;;;22.22;66.96;96645.97;5040331;28;20952;-76
2022/05/12 11:27:00;;;;;;;2.13;2.00;;;;;;;22.06;66.75;96651.06;5035186;28;20424;-75
2022/05/12 11:29:51;;;;;;;3.50;2.00;;;;;;;22.06;65.18;96614.13;5034029;28;20429;-75
2022/05/12 11:32:21;;;;;;;2.70;2.13;;;;;;;22.65;63.52;96627.56;5022848;28;20557;-75
2022/05/12 11:34:52;;;;;;;1.67;1.57;;;;;;;22.10;64.32;96641.03;5050597;28;20562;-76
2022/05/12 11:37:28;;;;;;;2.33;1.93;;;;;;;22.17;64.92;96632.94;5034278;28;21072;-75
2022/05/12 11:39:57;;;;;;;3.23;2.00;;;;;;;21.66;64.58;96625.47;5020642;28;20465;-75
2022/05/12 11:44:23;;;;;;;6.60;2.47;;;;;;;22.47;65.85;96631.56;5042074;28;20429;-75
2022/05/12 11:45:34;;;;;;;3.00;2.10;;;;;;;22.20;65.48;96629.44;5039178;28;20484;-75
2022/05/12 11:48:08;;;;;;;3.77;2.00;;;;;;;22.45;64.84;96604.25;5033811;28;20545;-76
2022/05/12 11:50:59;;;;;;;3.80;2.00;;;;;;;22.06;63.32;96600.66;5051606;28;20452;-75
2022/05/12 11:53:33;;;;;;;4.50;2.80;;;;;;;22.30;63.20;96606.25;5034026;28;20790;-75
2022/05/12 11:56:09;;;;;;;2.53;2.10;;;;;;;21.94;62.82;96594.94;5036610;28;20423;-76
2022/05/12 11:58:43;;;;;;;2.70;2.20;;;;;;;21.39;65.42;96619.78;5033634;28;20481;-76
2022/05/12 12:01:21;;;;;;;2.97;2.30;;;;;;;22.56;63.84;96637.25;5033382;28;20532;-75